sensor_id;sensor_type;location;lat;lon;timestamp;temperature;humidity
44843;DHT22;31884;52.538;13.820;2023-03-19T00:02:09;6.40;96.80
44843;DHT22;31884;52.538;13.820;2023-03-19T00:04:35;6.40;99.90
44843;DHT22;31884;52.538;13.820;2023-03-19T00:07:00;6.40;99.40
44843;DHT22;31884;52.538;13.820;2023-03-19T00:09:26;6.30;96.10
44843;DHT22;31884;52.538;13.820;2023-03-19T00:11:52;6.40;96.10
44843;DHT22;31884;52.538;13.820;2023-03-19T00:14:17;6.30;95.00
44843;DHT22;31884;52.538;13.820;2023-03-19T00:16:43;6.30;94.60
44843;DHT22;31884;52.538;13.820;2023-03-19T00:19:08;6.30;95.60
44843;DHT22;31884;52.538;13.820;2023-03-19T00:21:34;6.30;96.40
44843;DHT22;31884;52.538;13.820;2023-03-19T00:24:00;6.30;99.90
44843;DHT22;31884;52.538;13.820;2023-03-19T00:26:32;6.20;99.30
44843;DHT22;31884;52.538;13.820;2023-03-19T00:28:58;6.20;99.50
44843;DHT22;31884;52.538;13.820;2023-03-19T00:31:24;6.20;99.40
44843;DHT22;31884;52.538;13.820;2023-03-19T00:33:51;6.20;99.20
44843;DHT22;31884;52.538;13.820;2023-03-19T00:36:17;6.10;98.10
44843;DHT22;31884;52.538;13.820;2023-03-19T00:38:44;6.20;97.00
44843;DHT22;31884;52.538;13.820;2023-03-19T00:41:10;6.10;96.20
44843;DHT22;31884;52.538;13.820;2023-03-19T00:43:36;6.10;96.20
44843;DHT22;31884;52.538;13.820;2023-03-19T00:46:02;6.10;97.10
44843;DHT22;31884;52.538;13.820;2023-03-19T00:48:28;6.10;98.50
44843;DHT22;31884;52.538;13.820;2023-03-19T00:50:54;6.10;99.30
44843;DHT22;31884;52.538;13.820;2023-03-19T00:53:20;6.00;99.90
44843;DHT22;31884;52.538;13.820;2023-03-19T00:55:46;6.00;99.90
44843;DHT22;31884;52.538;13.820;2023-03-19T00:58:11;5.90;99.70
44843;DHT22;31884;52.538;13.820;2023-03-19T01:00:37;5.90;98.80
44843;DHT22;31884;52.538;13.820;2023-03-19T01:03:04;5.90;99.90
44843;DHT22;31884;52.538;13.820;2023-03-19T01:05:30;5.80;99.90
44843;DHT22;31884;52.538;13.820;2023-03-19T01:07:56;5.80;99.90
44843;DHT22;31884;52.538;13.820;2023-03-19T01:10:23;5.80;99.90
44843;DHT22;31884;52.538;13.820;2023-03-19T01:12:49;5.80;99.90
44843;DHT22;31884;52.538;13.820;2023-03-19T01:15:15;5.80;99.90
44843;DHT22;31884;52.538;13.820;2023-03-19T01:17:41;5.80;99.90
44843;DHT22;31884;52.538;13.820;2023-03-19T01:20:08;5.80;99.90
44843;DHT22;31884;52.538;13.820;2023-03-19T01:22:38;5.70;99.90
44843;DHT22;31884;52.538;13.820;2023-03-19T01:25:05;5.70;98.90
44843;DHT22;31884;52.538;13.820;2023-03-19T01:27:31;5.70;98.80
44843;DHT22;31884;52.538;13.820;2023-03-19T01:29:56;5.70;99.10
44843;DHT22;31884;52.538;13.820;2023-03-19T01:32:22;5.70;99.90
44843;DHT22;31884;52.538;13.820;2023-03-19T01:34:47;5.70;99.90
44843;DHT22;31884;52.538;13.820;2023-03-19T01:37:13;5.70;99.90
44843;DHT22;31884;52.538;13.820;2023-03-19T01:39:38;5.70;99.90
44843;DHT22;31884;52.538;13.820;2023-03-19T01:42:04;5.70;99.90
44843;DHT22;31884;52.538;13.820;2023-03-19T01:44:33;5.70;99.90
44843;DHT22;31884;52.538;13.820;2023-03-19T01:47:02;5.70;99.90
44843;DHT22;31884;52.538;13.820;2023-03-19T01:49:29;5.60;99.90
44843;DHT22;31884;52.538;13.820;2023-03-19T01:51:57;5.60;99.90
44843;DHT22;31884;52.538;13.820;2023-03-19T01:54:24;5.60;99.90
44843;DHT22;31884;52.538;13.820;2023-03-19T01:57:05;5.60;99.90
44843;DHT22;31884;52.538;13.820;2023-03-19T02:00:02;5.60;99.90
44843;DHT22;31884;52.538;13.820;2023-03-19T02:02:32;5.60;99.90
44843;DHT22;31884;52.538;13.820;2023-03-19T02:05:17;5.70;99.90
44843;DHT22;31884;52.538;13.820;2023-03-19T02:07:52;5.70;99.90
44843;DHT22;31884;52.538;13.820;2023-03-19T02:10:19;5.70;99.90
44843;DHT22;31884;52.538;13.820;2023-03-19T02:12:46;5.70;99.90
44843;DHT22;31884;52.538;13.820;2023-03-19T02:15:12;5.70;99.90
44843;DHT22;31884;52.538;13.820;2023-03-19T02:17:39;5.70;99.90
44843;DHT22;31884;52.538;13.820;2023-03-19T02:28:13;5.70;99.90
44843;DHT22;31884;52.538;13.820;2023-03-19T02:30:42;5.70;99.90
44843;DHT22;31884;52.538;13.820;2023-03-19T02:33:12;5.60;99.90
44843;DHT22;31884;52.538;13.820;2023-03-19T02:35:38;5.60;99.90
44843;DHT22;31884;52.538;13.820;2023-03-19T02:38:05;5.60;99.90
44843;DHT22;31884;52.538;13.820;2023-03-19T02:40:35;5.60;99.90
44843;DHT22;31884;52.538;13.820;2023-03-19T02:43:02;5.60;99.90
44843;DHT22;31884;52.538;13.820;2023-03-19T02:45:30;5.60;99.90
44843;DHT22;31884;52.538;13.820;2023-03-19T02:47:56;5.60;99.90
44843;DHT22;31884;52.538;13.820;2023-03-19T02:50:22;5.50;99.90
44843;DHT22;31884;52.538;13.820;2023-03-19T02:52:47;5.50;99.90
44843;DHT22;31884;52.538;13.820;2023-03-19T02:55:13;5.50;99.90
44843;DHT22;31884;52.538;13.820;2023-03-19T02:57:38;5.50;99.90
44843;DHT22;31884;52.538;13.820;2023-03-19T03:00:05;5.60;99.90
44843;DHT22;31884;52.538;13.820;2023-03-19T03:02:32;5.60;99.90
44843;DHT22;31884;52.538;13.820;2023-03-19T03:04:57;5.60;99.90
44843;DHT22;31884;52.538;13.820;2023-03-19T03:07:23;5.60;99.90
44843;DHT22;31884;52.538;13.820;2023-03-19T03:09:48;5.60;99.90
44843;DHT22;31884;52.538;13.820;2023-03-19T03:12:14;5.70;99.90
44843;DHT22;31884;52.538;13.820;2023-03-19T03:14:39;5.70;99.90
44843;DHT22;31884;52.538;13.820;2023-03-19T03:17:05;5.70;99.90
44843;DHT22;31884;52.538;13.820;2023-03-19T03:19:32;5.80;99.90
44843;DHT22;31884;52.538;13.820;2023-03-19T03:21:58;5.90;99.90
44843;DHT22;31884;52.538;13.820;2023-03-19T03:24:25;5.90;99.90
44843;DHT22;31884;52.538;13.820;2023-03-19T03:26:51;5.90;99.90
44843;DHT22;31884;52.538;13.820;2023-03-19T03:29:16;6.00;99.90
44843;DHT22;31884;52.538;13.820;2023-03-19T03:31:42;6.00;99.90
44843;DHT22;31884;52.538;13.820;2023-03-19T03:34:08;6.10;99.90
44843;DHT22;31884;52.538;13.820;2023-03-19T03:36:33;6.10;99.90
44843;DHT22;31884;52.538;13.820;2023-03-19T03:38:59;6.10;99.90
44843;DHT22;31884;52.538;13.820;2023-03-19T03:41:24;6.10;99.90
44843;DHT22;31884;52.538;13.820;2023-03-19T03:43:50;6.20;99.90
44843;DHT22;31884;52.538;13.820;2023-03-19T03:46:15;6.10;99.90
44843;DHT22;31884;52.538;13.820;2023-03-19T03:48:41;6.10;99.90
44843;DHT22;31884;52.538;13.820;2023-03-19T03:51:06;6.10;99.90
44843;DHT22;31884;52.538;13.820;2023-03-19T03:53:32;6.10;99.90
44843;DHT22;31884;52.538;13.820;2023-03-19T03:55:57;6.10;99.90
44843;DHT22;31884;52.538;13.820;2023-03-19T03:58:23;6.10;99.90
44843;DHT22;31884;52.538;13.820;2023-03-19T04:00:49;6.10;99.90
44843;DHT22;31884;52.538;13.820;2023-03-19T04:03:15;6.20;99.90
44843;DHT22;31884;52.538;13.820;2023-03-19T04:05:42;6.10;99.90
44843;DHT22;31884;52.538;13.820;2023-03-19T04:08:08;6.20;99.90
44843;DHT22;31884;52.538;13.820;2023-03-19T04:10:34;6.20;99.90
44843;DHT22;31884;52.538;13.820;2023-03-19T04:13:01;6.20;99.90
44843;DHT22;31884;52.538;13.820;2023-03-19T04:15:26;6.20;99.90
44843;DHT22;31884;52.538;13.820;2023-03-19T04:17:52;6.30;99.90
44843;DHT22;31884;52.538;13.820;2023-03-19T04:20:18;6.30;99.90
44843;DHT22;31884;52.538;13.820;2023-03-19T04:22:44;6.30;99.90
44843;DHT22;31884;52.538;13.820;2023-03-19T04:25:10;6.30;99.90
44843;DHT22;31884;52.538;13.820;2023-03-19T04:27:35;6.30;99.90
44843;DHT22;31884;52.538;13.820;2023-03-19T04:30:01;6.30;99.90
44843;DHT22;31884;52.538;13.820;2023-03-19T04:32:27;6.30;99.40
44843;DHT22;31884;52.538;13.820;2023-03-19T04:34:52;6.30;99.00
44843;DHT22;31884;52.538;13.820;2023-03-19T04:37:18;6.40;98.70
44843;DHT22;31884;52.538;13.820;2023-03-19T04:39:43;6.30;98.70
44843;DHT22;31884;52.538;13.820;2023-03-19T04:42:09;6.40;98.50
44843;DHT22;31884;52.538;13.820;2023-03-19T04:44:35;6.40;98.20
44843;DHT22;31884;52.538;13.820;2023-03-19T04:47:02;6.40;98.00
44843;DHT22;31884;52.538;13.820;2023-03-19T04:49:28;6.40;98.30
44843;DHT22;31884;52.538;13.820;2023-03-19T04:51:55;6.40;98.10
44843;DHT22;31884;52.538;13.820;2023-03-19T04:54:21;6.30;98.10
44843;DHT22;31884;52.538;13.820;2023-03-19T04:56:46;6.40;98.10
44843;DHT22;31884;52.538;13.820;2023-03-19T04:59:11;6.40;98.10
44843;DHT22;31884;52.538;13.820;2023-03-19T05:01:37;6.40;98.20
44843;DHT22;31884;52.538;13.820;2023-03-19T05:04:03;6.40;98.00
44843;DHT22;31884;52.538;13.820;2023-03-19T05:06:29;6.40;99.30
44843;DHT22;31884;52.538;13.820;2023-03-19T05:08:55;6.50;98.30
44843;DHT22;31884;52.538;13.820;2023-03-19T05:11:21;6.50;98.10
44843;DHT22;31884;52.538;13.820;2023-03-19T05:13:46;6.50;97.90
44843;DHT22;31884;52.538;13.820;2023-03-19T05:16:12;6.50;98.10
44843;DHT22;31884;52.538;13.820;2023-03-19T05:18:39;6.60;98.30
44843;DHT22;31884;52.538;13.820;2023-03-19T05:21:04;6.60;98.40
44843;DHT22;31884;52.538;13.820;2023-03-19T05:23:30;6.60;98.90
44843;DHT22;31884;52.538;13.820;2023-03-19T05:25:59;6.60;98.20
44843;DHT22;31884;52.538;13.820;2023-03-19T05:28:27;6.60;98.00
44843;DHT22;31884;52.538;13.820;2023-03-19T05:30:52;6.70;98.00
44843;DHT22;31884;52.538;13.820;2023-03-19T05:33:18;6.70;98.50
44843;DHT22;31884;52.538;13.820;2023-03-19T05:35:44;6.70;98.20
44843;DHT22;31884;52.538;13.820;2023-03-19T05:38:10;6.80;98.30
44843;DHT22;31884;52.538;13.820;2023-03-19T05:40:36;6.80;98.00
44843;DHT22;31884;52.538;13.820;2023-03-19T05:43:01;6.80;98.20
44843;DHT22;31884;52.538;13.820;2023-03-19T05:45:27;6.80;98.20
44843;DHT22;31884;52.538;13.820;2023-03-19T05:47:52;6.90;98.40
44843;DHT22;31884;52.538;13.820;2023-03-19T05:50:18;6.90;98.70
44843;DHT22;31884;52.538;13.820;2023-03-19T05:52:43;7.00;98.40
44843;DHT22;31884;52.538;13.820;2023-03-19T05:55:09;7.00;98.10
44843;DHT22;31884;52.538;13.820;2023-03-19T05:57:35;7.10;98.30
44843;DHT22;31884;52.538;13.820;2023-03-19T06:00:01;7.10;99.10
44843;DHT22;31884;52.538;13.820;2023-03-19T06:02:26;7.10;99.90
44843;DHT22;31884;52.538;13.820;2023-03-19T06:04:52;7.10;99.10
44843;DHT22;31884;52.538;13.820;2023-03-19T06:07:17;7.20;99.20
44843;DHT22;31884;52.538;13.820;2023-03-19T06:09:43;7.20;99.00
44843;DHT22;31884;52.538;13.820;2023-03-19T06:12:08;7.20;97.80
44843;DHT22;31884;52.538;13.820;2023-03-19T06:14:34;7.30;97.50
44843;DHT22;31884;52.538;13.820;2023-03-19T06:16:59;7.40;96.70
44843;DHT22;31884;52.538;13.820;2023-03-19T06:19:25;7.50;96.00
44843;DHT22;31884;52.538;13.820;2023-03-19T06:21:50;7.70;96.00
44843;DHT22;31884;52.538;13.820;2023-03-19T06:24:16;7.80;95.90
44843;DHT22;31884;52.538;13.820;2023-03-19T06:26:42;8.00;95.70
44843;DHT22;31884;52.538;13.820;2023-03-19T06:29:07;8.40;95.40
44843;DHT22;31884;52.538;13.820;2023-03-19T06:31:33;8.80;91.70
44843;DHT22;31884;52.538;13.820;2023-03-19T06:33:58;9.10;89.20
44843;DHT22;31884;52.538;13.820;2023-03-19T06:36:24;9.40;87.20
44843;DHT22;31884;52.538;13.820;2023-03-19T06:38:50;9.90;82.70
44843;DHT22;31884;52.538;13.820;2023-03-19T06:41:15;10.50;77.60
44843;DHT22;31884;52.538;13.820;2023-03-19T06:43:41;10.90;73.40
44843;DHT22;31884;52.538;13.820;2023-03-19T06:46:08;11.20;74.70
44843;DHT22;31884;52.538;13.820;2023-03-19T06:48:34;11.50;72.30
44843;DHT22;31884;52.538;13.820;2023-03-19T06:50:59;11.60;68.70
44843;DHT22;31884;52.538;13.820;2023-03-19T06:53:26;11.70;69.40
44843;DHT22;31884;52.538;13.820;2023-03-19T06:55:52;11.70;68.30
44843;DHT22;31884;52.538;13.820;2023-03-19T06:58:17;11.60;65.60
44843;DHT22;31884;52.538;13.820;2023-03-19T07:00:43;11.40;64.80
44843;DHT22;31884;52.538;13.820;2023-03-19T07:03:09;11.30;61.00
44843;DHT22;31884;52.538;13.820;2023-03-19T07:05:35;11.20;64.90
44843;DHT22;31884;52.538;13.820;2023-03-19T07:08:00;11.20;64.70
44843;DHT22;31884;52.538;13.820;2023-03-19T07:10:26;11.30;65.10
44843;DHT22;31884;52.538;13.820;2023-03-19T07:12:52;11.40;64.80
44843;DHT22;31884;52.538;13.820;2023-03-19T07:15:17;11.30;64.30
44843;DHT22;31884;52.538;13.820;2023-03-19T07:17:46;11.50;64.70
44843;DHT22;31884;52.538;13.820;2023-03-19T07:20:11;11.70;65.30
44843;DHT22;31884;52.538;13.820;2023-03-19T07:22:37;11.90;64.10
44843;DHT22;31884;52.538;13.820;2023-03-19T07:25:03;12.00;64.90
44843;DHT22;31884;52.538;13.820;2023-03-19T07:27:28;12.00;63.80
44843;DHT22;31884;52.538;13.820;2023-03-19T07:29:54;12.10;63.00
44843;DHT22;31884;52.538;13.820;2023-03-19T07:32:20;12.10;61.90
44843;DHT22;31884;52.538;13.820;2023-03-19T07:34:46;12.30;63.60
44843;DHT22;31884;52.538;13.820;2023-03-19T07:37:11;12.40;61.70
44843;DHT22;31884;52.538;13.820;2023-03-19T07:39:37;12.60;62.20
44843;DHT22;31884;52.538;13.820;2023-03-19T07:42:03;12.80;61.80
44843;DHT22;31884;52.538;13.820;2023-03-19T07:44:29;12.80;61.30
44843;DHT22;31884;52.538;13.820;2023-03-19T07:46:54;12.70;61.40
44843;DHT22;31884;52.538;13.820;2023-03-19T07:49:22;12.60;61.60
44843;DHT22;31884;52.538;13.820;2023-03-19T07:51:47;12.50;62.80
44843;DHT22;31884;52.538;13.820;2023-03-19T07:54:13;12.30;62.60
44843;DHT22;31884;52.538;13.820;2023-03-19T07:56:38;12.20;63.80
44843;DHT22;31884;52.538;13.820;2023-03-19T07:59:04;12.10;63.90
44843;DHT22;31884;52.538;13.820;2023-03-19T08:01:30;12.00;64.20
44843;DHT22;31884;52.538;13.820;2023-03-19T08:03:56;12.00;65.30
44843;DHT22;31884;52.538;13.820;2023-03-19T08:06:21;12.00;65.40
44843;DHT22;31884;52.538;13.820;2023-03-19T08:08:48;12.10;66.80
44843;DHT22;31884;52.538;13.820;2023-03-19T08:11:13;12.20;67.10
44843;DHT22;31884;52.538;13.820;2023-03-19T08:13:39;12.40;67.50
44843;DHT22;31884;52.538;13.820;2023-03-19T08:16:04;12.60;68.30
44843;DHT22;31884;52.538;13.820;2023-03-19T08:18:30;12.80;68.60
44843;DHT22;31884;52.538;13.820;2023-03-19T08:20:55;13.00;67.90
44843;DHT22;31884;52.538;13.820;2023-03-19T08:23:21;13.10;65.80
44843;DHT22;31884;52.538;13.820;2023-03-19T08:25:47;13.20;64.60
44843;DHT22;31884;52.538;13.820;2023-03-19T08:28:15;13.30;66.10
44843;DHT22;31884;52.538;13.820;2023-03-19T08:30:41;13.30;65.50
44843;DHT22;31884;52.538;13.820;2023-03-19T08:33:06;13.40;65.20
44843;DHT22;31884;52.538;13.820;2023-03-19T08:35:33;13.50;64.80
44843;DHT22;31884;52.538;13.820;2023-03-19T08:37:59;13.50;62.50
44843;DHT22;31884;52.538;13.820;2023-03-19T08:40:24;13.60;65.10
44843;DHT22;31884;52.538;13.820;2023-03-19T08:42:50;13.70;68.40
44843;DHT22;31884;52.538;13.820;2023-03-19T08:45:16;13.90;67.60
44843;DHT22;31884;52.538;13.820;2023-03-19T08:47:42;14.10;66.50
44843;DHT22;31884;52.538;13.820;2023-03-19T08:50:09;14.30;66.10
44843;DHT22;31884;52.538;13.820;2023-03-19T08:52:35;14.50;66.30
44843;DHT22;31884;52.538;13.820;2023-03-19T08:55:00;14.50;62.90
44843;DHT22;31884;52.538;13.820;2023-03-19T08:57:26;14.70;63.90
44843;DHT22;31884;52.538;13.820;2023-03-19T08:59:52;14.90;62.30
44843;DHT22;31884;52.538;13.820;2023-03-19T09:02:18;14.80;61.70
44843;DHT22;31884;52.538;13.820;2023-03-19T09:04:44;14.90;63.70
44843;DHT22;31884;52.538;13.820;2023-03-19T09:07:10;14.80;64.70
44843;DHT22;31884;52.538;13.820;2023-03-19T09:09:44;15.00;64.60
44843;DHT22;31884;52.538;13.820;2023-03-19T09:12:12;14.80;63.50
44843;DHT22;31884;52.538;13.820;2023-03-19T09:14:38;14.90;64.30
44843;DHT22;31884;52.538;13.820;2023-03-19T09:17:04;14.90;64.50
44843;DHT22;31884;52.538;13.820;2023-03-19T09:19:30;14.80;63.90
44843;DHT22;31884;52.538;13.820;2023-03-19T09:21:56;14.40;62.00
44843;DHT22;31884;52.538;13.820;2023-03-19T09:24:22;14.20;62.80
44843;DHT22;31884;52.538;13.820;2023-03-19T09:26:47;14.10;63.10
44843;DHT22;31884;52.538;13.820;2023-03-19T09:29:14;14.00;63.60
44843;DHT22;31884;52.538;13.820;2023-03-19T09:31:39;13.90;64.00
44843;DHT22;31884;52.538;13.820;2023-03-19T09:34:06;13.70;64.00
44843;DHT22;31884;52.538;13.820;2023-03-19T09:36:32;13.70;64.70
44843;DHT22;31884;52.538;13.820;2023-03-19T09:38:57;13.60;66.70
44843;DHT22;31884;52.538;13.820;2023-03-19T09:41:50;13.60;67.90
44843;DHT22;31884;52.538;13.820;2023-03-19T09:44:31;13.50;69.70
44843;DHT22;31884;52.538;13.820;2023-03-19T09:49:49;13.30;71.20
44843;DHT22;31884;52.538;13.820;2023-03-19T09:52:34;13.30;72.50
44843;DHT22;31884;52.538;13.820;2023-03-19T09:55:27;13.20;76.60
44843;DHT22;31884;52.538;13.820;2023-03-19T09:57:56;12.90;84.10
44843;DHT22;31884;52.538;13.820;2023-03-19T10:00:25;12.50;95.30
44843;DHT22;31884;52.538;13.820;2023-03-19T10:03:13;12.10;96.30
44843;DHT22;31884;52.538;13.820;2023-03-19T10:16:14;11.30;99.90
44843;DHT22;31884;52.538;13.820;2023-03-19T10:18:45;11.20;99.90
44843;DHT22;31884;52.538;13.820;2023-03-19T10:21:48;11.10;99.90
44843;DHT22;31884;52.538;13.820;2023-03-19T10:24:23;11.10;99.90
44843;DHT22;31884;52.538;13.820;2023-03-19T10:26:57;11.00;99.90
44843;DHT22;31884;52.538;13.820;2023-03-19T10:29:23;11.00;99.90
44843;DHT22;31884;52.538;13.820;2023-03-19T10:31:57;11.00;99.90
44843;DHT22;31884;52.538;13.820;2023-03-19T10:34:36;11.00;99.90
44843;DHT22;31884;52.538;13.820;2023-03-19T10:37:05;11.10;99.90
44843;DHT22;31884;52.538;13.820;2023-03-19T10:39:39;11.20;99.90
44843;DHT22;31884;52.538;13.820;2023-03-19T10:42:33;11.20;99.90
44843;DHT22;31884;52.538;13.820;2023-03-19T10:47:42;11.30;99.90
44843;DHT22;31884;52.538;13.820;2023-03-19T10:50:15;11.50;99.90
44843;DHT22;31884;52.538;13.820;2023-03-19T10:52:41;11.60;99.90
44843;DHT22;31884;52.538;13.820;2023-03-19T10:55:34;11.70;99.90
44843;DHT22;31884;52.538;13.820;2023-03-19T10:58:15;11.90;99.90
44843;DHT22;31884;52.538;13.820;2023-03-19T11:00:45;11.90;99.90
44843;DHT22;31884;52.538;13.820;2023-03-19T11:03:32;12.00;99.90
44843;DHT22;31884;52.538;13.820;2023-03-19T11:06:21;12.00;99.90
44843;DHT22;31884;52.538;13.820;2023-03-19T11:08:56;12.00;99.90
44843;DHT22;31884;52.538;13.820;2023-03-19T11:11:35;12.00;99.90
44843;DHT22;31884;52.538;13.820;2023-03-19T11:14:16;12.00;99.90
44843;DHT22;31884;52.538;13.820;2023-03-19T11:19:24;12.30;99.90
44843;DHT22;31884;52.538;13.820;2023-03-19T11:24:49;12.50;99.90
44843;DHT22;31884;52.538;13.820;2023-03-19T11:27:14;12.50;99.90
44843;DHT22;31884;52.538;13.820;2023-03-19T11:29:42;12.50;99.90
44843;DHT22;31884;52.538;13.820;2023-03-19T11:32:32;12.40;99.90
44843;DHT22;31884;52.538;13.820;2023-03-19T11:35:19;12.40;99.90
44843;DHT22;31884;52.538;13.820;2023-03-19T11:43:36;12.50;99.90
44843;DHT22;31884;52.538;13.820;2023-03-19T11:46:09;12.60;99.90
44843;DHT22;31884;52.538;13.820;2023-03-19T11:49:06;12.60;99.90
44843;DHT22;31884;52.538;13.820;2023-03-19T11:51:50;12.70;99.90
44843;DHT22;31884;52.538;13.820;2023-03-19T11:57:02;12.80;99.90
44843;DHT22;31884;52.538;13.820;2023-03-19T11:59:42;13.00;99.90
44843;DHT22;31884;52.538;13.820;2023-03-19T12:05:12;13.20;99.90
44843;DHT22;31884;52.538;13.820;2023-03-19T12:10:41;13.50;99.90
44843;DHT22;31884;52.538;13.820;2023-03-19T12:13:38;13.60;99.90
44843;DHT22;31884;52.538;13.820;2023-03-19T12:16:23;13.80;99.90
44843;DHT22;31884;52.538;13.820;2023-03-19T12:35:23;15.00;96.40
44843;DHT22;31884;52.538;13.820;2023-03-19T12:43:33;15.50;94.60
44843;DHT22;31884;52.538;13.820;2023-03-19T12:46:06;15.60;94.00
44843;DHT22;31884;52.538;13.820;2023-03-19T12:48:48;15.70;93.80
44843;DHT22;31884;52.538;13.820;2023-03-19T12:51:19;15.90;92.30
44843;DHT22;31884;52.538;13.820;2023-03-19T12:53:53;16.00;92.80
44843;DHT22;31884;52.538;13.820;2023-03-19T12:56:47;16.10;90.70
44843;DHT22;31884;52.538;13.820;2023-03-19T12:59:52;16.20;89.00
44843;DHT22;31884;52.538;13.820;2023-03-19T13:02:27;16.30;90.00
44843;DHT22;31884;52.538;13.820;2023-03-19T13:05:02;16.40;90.90
44843;DHT22;31884;52.538;13.820;2023-03-19T13:07:56;16.50;90.10
44843;DHT22;31884;52.538;13.820;2023-03-19T13:10:24;16.60;84.20
44843;DHT22;31884;52.538;13.820;2023-03-19T13:12:50;16.60;80.00
44843;DHT22;31884;52.538;13.820;2023-03-19T13:15:36;16.60;80.70
44843;DHT22;31884;52.538;13.820;2023-03-19T13:18:39;16.70;80.20
44843;DHT22;31884;52.538;13.820;2023-03-19T13:21:30;16.80;69.20
44843;DHT22;31884;52.538;13.820;2023-03-19T13:24:14;16.80;71.70
44843;DHT22;31884;52.538;13.820;2023-03-19T13:26:41;16.80;65.20
44843;DHT22;31884;52.538;13.820;2023-03-19T13:29:18;16.70;68.30
44843;DHT22;31884;52.538;13.820;2023-03-19T13:31:44;16.80;69.60
44843;DHT22;31884;52.538;13.820;2023-03-19T13:36:44;16.80;62.50
44843;DHT22;31884;52.538;13.820;2023-03-19T13:39:15;16.70;64.20
44843;DHT22;31884;52.538;13.820;2023-03-19T13:44:32;16.80;65.70
44843;DHT22;31884;52.538;13.820;2023-03-19T13:52:50;16.70;60.80
44843;DHT22;31884;52.538;13.820;2023-03-19T13:55:44;16.60;60.80
44843;DHT22;31884;52.538;13.820;2023-03-19T14:01:02;16.60;61.10
44843;DHT22;31884;52.538;13.820;2023-03-19T14:03:30;16.60;61.00
44843;DHT22;31884;52.538;13.820;2023-03-19T14:05:57;16.70;62.00
44843;DHT22;31884;52.538;13.820;2023-03-19T14:08:46;16.70;61.10
44843;DHT22;31884;52.538;13.820;2023-03-19T14:11:34;16.70;59.80
44843;DHT22;31884;52.538;13.820;2023-03-19T14:14:06;16.70;57.10
44843;DHT22;31884;52.538;13.820;2023-03-19T14:16:34;16.70;56.20
44843;DHT22;31884;52.538;13.820;2023-03-19T14:19:02;16.60;57.10
44843;DHT22;31884;52.538;13.820;2023-03-19T14:21:41;16.60;56.30
44843;DHT22;31884;52.538;13.820;2023-03-19T14:24:28;16.60;55.50
44843;DHT22;31884;52.538;13.820;2023-03-19T14:26:54;16.70;55.10
44843;DHT22;31884;52.538;13.820;2023-03-19T14:29:21;16.70;54.90
44843;DHT22;31884;52.538;13.820;2023-03-19T14:31:53;16.70;56.60
44843;DHT22;31884;52.538;13.820;2023-03-19T14:34:25;16.80;56.50
44843;DHT22;31884;52.538;13.820;2023-03-19T14:37:21;16.80;56.60
44843;DHT22;31884;52.538;13.820;2023-03-19T14:42:37;16.70;54.70
44843;DHT22;31884;52.538;13.820;2023-03-19T14:45:28;16.70;52.50
44843;DHT22;31884;52.538;13.820;2023-03-19T14:48:14;16.70;53.20
44843;DHT22;31884;52.538;13.820;2023-03-19T14:53:52;16.80;53.40
44843;DHT22;31884;52.538;13.820;2023-03-19T14:56:29;16.70;52.20
44843;DHT22;31884;52.538;13.820;2023-03-19T14:58:56;16.70;53.50
44843;DHT22;31884;52.538;13.820;2023-03-19T15:01:24;16.70;54.30
44843;DHT22;31884;52.538;13.820;2023-03-19T15:04:00;16.80;55.10
44843;DHT22;31884;52.538;13.820;2023-03-19T15:06:34;16.80;55.30
44843;DHT22;31884;52.538;13.820;2023-03-19T15:09:00;16.90;55.40
44843;DHT22;31884;52.538;13.820;2023-03-19T15:11:44;16.90;54.90
44843;DHT22;31884;52.538;13.820;2023-03-19T15:14:32;16.90;53.80
44843;DHT22;31884;52.538;13.820;2023-03-19T15:17:31;16.90;54.60
44843;DHT22;31884;52.538;13.820;2023-03-19T15:19:59;16.90;54.30
44843;DHT22;31884;52.538;13.820;2023-03-19T15:22:36;16.90;55.20
44843;DHT22;31884;52.538;13.820;2023-03-19T15:25:10;16.80;54.50
44843;DHT22;31884;52.538;13.820;2023-03-19T15:27:37;16.80;53.60
44843;DHT22;31884;52.538;13.820;2023-03-19T15:30:20;16.70;54.20
44843;DHT22;31884;52.538;13.820;2023-03-19T15:32:46;16.70;54.70
44843;DHT22;31884;52.538;13.820;2023-03-19T15:35:11;16.60;54.40
44843;DHT22;31884;52.538;13.820;2023-03-19T15:37:40;16.60;54.50
44843;DHT22;31884;52.538;13.820;2023-03-19T15:40:10;16.60;55.00
44843;DHT22;31884;52.538;13.820;2023-03-19T15:42:37;16.60;55.40
44843;DHT22;31884;52.538;13.820;2023-03-19T15:45:06;16.60;55.70
44843;DHT22;31884;52.538;13.820;2023-03-19T15:47:35;16.60;55.70
44843;DHT22;31884;52.538;13.820;2023-03-19T15:50:09;16.50;56.00
44843;DHT22;31884;52.538;13.820;2023-03-19T15:52:39;16.50;56.50
44843;DHT22;31884;52.538;13.820;2023-03-19T15:55:06;16.40;56.60
44843;DHT22;31884;52.538;13.820;2023-03-19T15:57:34;16.40;56.90
44843;DHT22;31884;52.538;13.820;2023-03-19T16:00:01;16.30;57.60
44843;DHT22;31884;52.538;13.820;2023-03-19T16:02:29;16.30;57.40
44843;DHT22;31884;52.538;13.820;2023-03-19T16:04:56;16.20;57.50
44843;DHT22;31884;52.538;13.820;2023-03-19T16:10:05;16.10;58.00
44843;DHT22;31884;52.538;13.820;2023-03-19T16:12:48;16.00;58.20
44843;DHT22;31884;52.538;13.820;2023-03-19T16:17:53;15.90;58.50
44843;DHT22;31884;52.538;13.820;2023-03-19T16:20:19;15.80;58.60
44843;DHT22;31884;52.538;13.820;2023-03-19T16:22:52;15.80;58.80
44843;DHT22;31884;52.538;13.820;2023-03-19T16:25:19;15.80;59.10
44843;DHT22;31884;52.538;13.820;2023-03-19T16:27:45;15.70;60.00
44843;DHT22;31884;52.538;13.820;2023-03-19T16:30:20;15.70;59.70
44843;DHT22;31884;52.538;13.820;2023-03-19T16:32:57;15.70;60.20
44843;DHT22;31884;52.538;13.820;2023-03-19T16:35:23;15.60;60.90
44843;DHT22;31884;52.538;13.820;2023-03-19T16:37:49;15.60;61.20
44843;DHT22;31884;52.538;13.820;2023-03-19T16:42:48;15.40;63.00
44843;DHT22;31884;52.538;13.820;2023-03-19T16:45:24;15.30;64.10
44843;DHT22;31884;52.538;13.820;2023-03-19T16:47:51;15.30;65.20
44843;DHT22;31884;52.538;13.820;2023-03-19T16:50:19;15.30;67.80
44843;DHT22;31884;52.538;13.820;2023-03-19T16:52:46;15.10;68.40
44843;DHT22;31884;52.538;13.820;2023-03-19T16:55:30;15.10;69.70
44843;DHT22;31884;52.538;13.820;2023-03-19T16:57:59;15.00;71.20
44843;DHT22;31884;52.538;13.820;2023-03-19T17:00:27;15.00;75.00
44843;DHT22;31884;52.538;13.820;2023-03-19T17:02:53;14.90;71.80
44843;DHT22;31884;52.538;13.820;2023-03-19T17:05:23;14.80;74.40
44843;DHT22;31884;52.538;13.820;2023-03-19T17:07:49;14.70;73.60
44843;DHT22;31884;52.538;13.820;2023-03-19T17:10:16;14.60;74.90
44843;DHT22;31884;52.538;13.820;2023-03-19T17:12:45;14.60;76.80